createdAt,value
2022-08-18T00:02:07.141Z,18.73
2022-08-18T00:05:13.649Z,18.69
2022-08-18T00:08:18.839Z,18.63
2022-08-18T00:11:23.774Z,18.57
2022-08-18T00:14:28.928Z,18.54
2022-08-18T00:17:33.860Z,18.51
2022-08-18T00:20:37.493Z,18.46
2022-08-18T00:23:41.360Z,18.47
2022-08-18T00:26:48.636Z,18.47
2022-08-18T00:29:57.224Z,18.47
2022-08-18T00:33:02.156Z,18.46
2022-08-18T00:36:06.447Z,18.44
2022-08-18T00:39:10.155Z,18.38
2022-08-18T00:42:28.840Z,18.36
2022-08-18T00:45:39.413Z,18.29
2022-08-18T00:48:48.406Z,18.27
2022-08-18T00:51:53.511Z,18.11
2022-08-18T00:54:58.010Z,18.02
2022-08-18T00:58:10.371Z,17.90
2022-08-18T01:01:18.759Z,17.86
2022-08-18T01:04:29.277Z,17.71
2022-08-18T01:07:40.614Z,17.69
2022-08-18T01:10:45.122Z,17.65
2022-08-18T01:13:48.973Z,17.66
2022-08-18T01:17:11.402Z,17.67
2022-08-18T01:20:41.536Z,17.67
2022-08-18T01:23:48.773Z,17.67
2022-08-18T01:26:51.512Z,17.61
2022-08-18T01:29:55.133Z,17.58
2022-08-18T01:33:00.263Z,17.62
2022-08-18T01:36:14.624Z,17.58
2022-08-18T01:41:21.022Z,17.56
2022-08-18T01:42:46.630Z,17.50
2022-08-18T01:45:50.393Z,17.53
2022-08-18T01:48:54.503Z,17.53
2022-08-18T01:51:58.197Z,17.49
2022-08-18T01:55:04.883Z,17.41
2022-08-18T01:58:09.278Z,17.34
2022-08-18T02:01:13.333Z,17.38
2022-08-18T02:04:36.512Z,17.39
2022-08-18T02:07:41.292Z,17.45
2022-08-18T02:10:47.680Z,17.42
2022-08-18T02:13:51.357Z,17.41
2022-08-18T02:17:01.017Z,17.48
2022-08-18T02:20:08.694Z,17.51
2022-08-18T02:23:12.926Z,17.58
2022-08-18T02:26:19.770Z,17.67
2022-08-18T02:29:23.541Z,17.74
2022-08-18T02:32:27.270Z,17.78
2022-08-18T02:35:33.839Z,17.77
2022-08-18T02:38:37.663Z,17.81
2022-08-18T02:41:46.192Z,17.85
2022-08-18T02:44:50.087Z,17.87
2022-08-18T02:47:55.155Z,17.91
2022-08-18T02:51:03.757Z,17.93
2022-08-18T02:54:09.412Z,17.98
2022-08-18T02:57:14.950Z,18.02
2022-08-18T03:00:20.825Z,18.06
2022-08-18T03:03:24.427Z,18.12
2022-08-18T03:06:30.490Z,18.09
2022-08-18T03:09:35.894Z,18.13
2022-08-18T03:12:43.250Z,18.12
2022-08-18T03:15:47.115Z,18.17
2022-08-18T03:18:50.806Z,18.10
2022-08-18T03:21:58.051Z,18.19
2022-08-18T03:25:01.992Z,18.17
2022-08-18T03:28:07.830Z,18.20
2022-08-18T03:31:14.287Z,18.19
2022-08-18T03:34:21.166Z,18.15
2022-08-18T03:37:24.864Z,18.18
2022-08-18T03:40:28.866Z,18.17
2022-08-18T03:43:50.601Z,18.20
2022-08-18T03:46:55.258Z,18.19
2022-08-18T03:49:59.512Z,18.23
2022-08-18T03:53:05.332Z,18.18
2022-08-18T03:56:17.622Z,18.12
2022-08-18T03:59:27.074Z,18.16
2022-08-18T04:02:30.727Z,18.14
2022-08-18T04:05:35.826Z,18.19
2022-08-18T04:08:39.440Z,18.19
2022-08-18T04:11:45.133Z,18.21
2022-08-18T04:14:51.910Z,18.23
2022-08-18T04:18:03.503Z,18.19
2022-08-18T04:21:13.729Z,18.19
2022-08-18T04:24:17.660Z,18.19
2022-08-18T04:27:23.604Z,18.14
2022-08-18T04:30:29.174Z,18.16
2022-08-18T04:33:33.000Z,18.18
2022-08-18T04:36:38.466Z,18.20
2022-08-18T04:39:42.533Z,18.25
2022-08-18T04:42:47.146Z,18.25
2022-08-18T04:45:52.226Z,18.30
2022-08-18T04:48:59.636Z,18.37
2022-08-18T04:52:40.002Z,18.36
2022-08-18T04:55:49.876Z,18.39
2022-08-18T04:58:56.165Z,18.42
2022-08-18T05:02:05.807Z,18.50
2022-08-18T05:05:11.260Z,18.55
2022-08-18T05:08:15.099Z,18.60
2022-08-18T05:11:18.882Z,18.63
2022-08-18T05:14:22.755Z,18.61
2022-08-18T05:17:30.501Z,18.59
2022-08-18T05:20:35.140Z,18.62
2022-08-18T05:23:38.845Z,18.63
2022-08-18T05:26:42.582Z,18.60
2022-08-18T05:29:46.400Z,18.65
2022-08-18T05:32:51.524Z,18.64
2022-08-18T05:36:05.067Z,18.56
2022-08-18T05:39:22.786Z,18.59
2022-08-18T05:42:30.551Z,18.57
2022-08-18T05:45:35.555Z,18.58
2022-08-18T05:48:43.699Z,18.58
2022-08-18T05:51:51.137Z,18.65
2022-08-18T05:55:18.406Z,18.63
2022-08-18T05:58:33.341Z,18.68
2022-08-18T06:01:46.040Z,18.77
2022-08-18T06:04:55.977Z,18.79
2022-08-18T06:08:05.172Z,18.79
2022-08-18T06:11:22.066Z,18.74
2022-08-18T06:14:26.625Z,18.80
2022-08-18T06:18:02.649Z,18.78
2022-08-18T06:21:39.441Z,18.86
2022-08-18T06:24:57.937Z,18.92
2022-08-18T06:28:09.475Z,18.92
2022-08-18T06:31:27.359Z,18.95
2022-08-18T06:34:46.466Z,18.88
2022-08-18T06:38:23.543Z,18.98
2022-08-18T06:41:43.084Z,18.97
2022-08-18T06:44:54.119Z,19.02
2022-08-18T06:48:15.199Z,19.05
2022-08-18T06:51:23.089Z,19.10
2022-08-18T06:54:31.149Z,19.15
2022-08-18T06:57:38.946Z,19.24
2022-08-18T07:00:57.410Z,19.40
2022-08-18T07:04:01.190Z,19.56
2022-08-18T07:07:22.194Z,19.66
2022-08-18T07:10:39.899Z,19.75
2022-08-18T07:13:47.956Z,19.87
2022-08-18T07:17:11.538Z,20.26
2022-08-18T07:20:25.369Z,20.34
2022-08-18T07:23:38.343Z,20.44
2022-08-18T07:27:03.844Z,20.52
2022-08-18T07:30:15.728Z,20.63
2022-08-18T07:33:27.067Z,20.61
2022-08-18T07:36:48.666Z,20.58
2022-08-18T07:40:01.069Z,20.67
2022-08-18T07:43:18.773Z,20.71
2022-08-18T07:46:33.108Z,20.71
2022-08-18T07:49:46.043Z,20.65
2022-08-18T07:53:18.198Z,20.78
2022-08-18T07:56:38.995Z,20.72
2022-08-18T07:59:52.477Z,20.64
2022-08-18T08:03:21.779Z,20.48
2022-08-18T08:06:36.003Z,20.72
2022-08-18T08:09:54.517Z,20.66
2022-08-18T08:13:31.269Z,20.80
2022-08-18T08:16:50.893Z,20.80
2022-08-18T08:20:15.800Z,20.85
2022-08-18T08:23:31.764Z,20.87
2022-08-18T08:26:55.252Z,20.75
2022-08-18T08:30:07.068Z,20.77
2022-08-18T08:33:24.490Z,20.85
2022-08-18T08:36:34.786Z,20.86
2022-08-18T08:39:46.356Z,20.90
2022-08-18T08:42:57.515Z,21.10
2022-08-18T08:46:12.183Z,20.93
2022-08-18T08:49:31.986Z,20.99
2022-08-18T08:52:44.150Z,21.03
2022-08-18T08:55:52.619Z,21.23
2022-08-18T08:59:04.827Z,21.32
2022-08-18T09:02:47.754Z,21.47
2022-08-18T09:06:07.906Z,21.99
2022-08-18T09:09:38.751Z,22.44
2022-08-18T09:13:09.175Z,22.48
2022-08-18T09:16:36.695Z,22.46
2022-08-18T09:20:20.683Z,22.57
2022-08-18T09:23:33.678Z,22.55
2022-08-18T09:26:47.602Z,22.32
2022-08-18T09:29:57.385Z,22.27
2022-08-18T09:33:20.683Z,22.22
2022-08-18T09:36:45.491Z,22.26
2022-08-18T09:40:29.634Z,22.05
2022-08-18T09:44:17.765Z,21.78
2022-08-18T09:48:20.656Z,21.84
2022-08-18T09:51:41.251Z,22.44
2022-08-18T09:54:59.829Z,22.45
2022-08-18T09:58:20.428Z,22.68
2022-08-18T10:01:42.445Z,23.02
2022-08-18T10:04:50.607Z,23.17
2022-08-18T10:08:21.537Z,22.90
2022-08-18T10:11:59.399Z,23.50
2022-08-18T10:15:47.163Z,23.50
2022-08-18T10:19:13.099Z,23.50
2022-08-18T10:22:41.847Z,23.98
2022-08-18T10:25:47.604Z,24.28
2022-08-18T10:29:00.558Z,24.21
2022-08-18T10:32:44.305Z,23.92
2022-08-18T10:36:03.047Z,23.58
2022-08-18T10:39:11.517Z,23.49
2022-08-18T10:42:28.637Z,23.54
2022-08-18T10:45:39.114Z,23.53
2022-08-18T10:48:42.907Z,23.16
2022-08-18T10:52:16.156Z,23.42
2022-08-18T10:55:50.351Z,23.83
2022-08-18T11:06:45.212Z,24.46
2022-08-18T11:10:04.423Z,24.53
2022-08-18T11:13:24.469Z,24.26
2022-08-18T11:16:55.999Z,24.14
2022-08-18T11:20:03.973Z,24.12
2022-08-18T11:23:15.866Z,24.27
2022-08-18T11:26:20.031Z,24.24
2022-08-18T11:29:34.206Z,24.18
2022-08-18T11:32:51.362Z,24.32
2022-08-18T11:36:01.445Z,24.21
2022-08-18T11:39:10.762Z,24.38
2022-08-18T11:45:58.195Z,24.07
2022-08-18T11:49:16.475Z,23.60
2022-08-18T11:52:34.432Z,23.24
2022-08-18T11:55:39.316Z,23.08
2022-08-18T11:58:56.797Z,23.14
2022-08-18T12:02:00.957Z,23.43
2022-08-18T12:05:08.467Z,23.45
2022-08-18T12:08:54.638Z,23.58
2022-08-18T12:11:56.528Z,23.40
2022-08-18T12:15:23.827Z,23.14
2022-08-18T12:18:29.739Z,23.42
2022-08-18T12:21:34.424Z,23.28
2022-08-18T12:24:41.524Z,23.52
2022-08-18T12:27:45.608Z,23.45
2022-08-18T12:30:56.150Z,23.41
2022-08-18T12:34:01.021Z,23.66
2022-08-18T12:37:14.303Z,23.87
2022-08-18T12:40:31.046Z,23.81
2022-08-18T12:43:36.872Z,23.77
2022-08-18T12:46:43.029Z,23.74
2022-08-18T12:49:46.956Z,23.77
2022-08-18T12:52:54.752Z,23.88
2022-08-18T12:56:01.783Z,24.22
2022-08-18T12:59:09.544Z,24.22
2022-08-18T13:02:13.814Z,24.02
2022-08-18T13:05:26.190Z,23.77
2022-08-18T13:08:38.150Z,23.53
2022-08-18T13:11:53.534Z,23.32
2022-08-18T13:14:57.951Z,23.48
2022-08-18T13:18:02.928Z,23.31
2022-08-18T13:21:08.409Z,23.25
2022-08-18T13:24:13.902Z,23.35
2022-08-18T13:27:23.339Z,23.35
2022-08-18T13:30:31.512Z,23.30
2022-08-18T13:33:57.184Z,23.14
2022-08-18T13:36:59.933Z,23.46
2022-08-18T13:40:04.392Z,23.42
2022-08-18T13:43:13.317Z,23.02
2022-08-18T13:46:29.995Z,23.18
2022-08-18T13:49:35.250Z,23.17
2022-08-18T13:52:44.625Z,23.38
2022-08-18T13:55:49.756Z,23.50
2022-08-18T13:58:54.750Z,23.89
2022-08-18T14:01:58.983Z,24.13
2022-08-18T14:05:04.694Z,23.60
2022-08-18T14:08:09.929Z,23.65
2022-08-18T14:11:14.070Z,23.33
2022-08-18T14:14:20.114Z,22.97
2022-08-18T14:17:26.308Z,22.79
2022-08-18T14:20:48.101Z,22.63
2022-08-18T14:24:10.718Z,22.74
2022-08-18T14:27:19.287Z,22.72
2022-08-18T14:30:25.878Z,22.68
2022-08-18T14:33:51.166Z,22.45
2022-08-18T14:36:55.934Z,22.54
2022-08-18T14:40:01.011Z,22.60
2022-08-18T14:43:07.990Z,22.42
2022-08-18T14:46:14.201Z,22.57
2022-08-18T14:49:28.544Z,22.74
2022-08-18T14:52:33.316Z,22.96
2022-08-18T14:55:38.083Z,22.90
2022-08-18T14:58:42.278Z,22.79
2022-08-18T15:01:47.318Z,22.75
2022-08-18T15:04:53.044Z,22.84
2022-08-18T15:08:03.797Z,22.55
2022-08-18T15:11:11.602Z,22.86
2022-08-18T15:14:17.666Z,22.82
2022-08-18T15:17:24.606Z,22.73
2022-08-18T15:20:29.994Z,23.01
2022-08-18T15:23:53.243Z,23.13
2022-08-18T15:27:05.699Z,23.17
2022-08-18T15:30:19.494Z,23.18
2022-08-18T15:33:30.052Z,23.21
2022-08-18T15:36:36.249Z,23.29
2022-08-18T15:39:40.070Z,23.04
2022-08-18T15:42:49.935Z,22.78
2022-08-18T15:45:57.807Z,22.72
2022-08-18T15:49:06.015Z,22.28
2022-08-18T15:52:13.635Z,22.12
2022-08-18T15:55:24.262Z,22.07
2022-08-18T15:58:28.585Z,21.91
2022-08-18T16:01:33.183Z,22.12
2022-08-18T16:04:39.489Z,22.19
2022-08-18T16:07:47.680Z,22.06
2022-08-18T16:10:52.931Z,22.06
2022-08-18T16:13:58.749Z,21.98
2022-08-18T16:17:09.119Z,21.95
2022-08-18T16:20:19.754Z,21.89
2022-08-18T16:23:23.415Z,21.73
2022-08-18T16:26:27.288Z,21.52
2022-08-18T16:29:30.879Z,21.52
2022-08-18T16:32:34.594Z,21.13
2022-08-18T16:35:39.957Z,20.96
2022-08-18T16:38:49.053Z,21.08
2022-08-18T16:41:57.678Z,21.13
2022-08-18T16:45:01.563Z,21.05
2022-08-18T16:48:08.260Z,20.91
2022-08-18T16:51:17.445Z,21.10
2022-08-18T16:54:21.210Z,21.35
2022-08-18T16:57:53.293Z,21.28
2022-08-18T17:01:18.838Z,21.12
2022-08-18T17:04:27.778Z,20.84
2022-08-18T17:07:36.422Z,20.64
2022-08-18T17:10:43.087Z,20.47
2022-08-18T17:13:50.002Z,20.42
2022-08-18T17:16:55.873Z,20.54
2022-08-18T17:19:59.554Z,20.50
2022-08-18T17:23:04.770Z,20.44
2022-08-18T17:26:16.597Z,20.28
2022-08-18T17:29:28.446Z,20.26
2022-08-18T17:32:41.821Z,20.28
2022-08-18T17:35:48.593Z,20.37
2022-08-18T17:39:00.134Z,20.58
2022-08-18T17:42:23.005Z,20.51
2022-08-18T17:45:41.169Z,20.37
2022-08-18T17:48:52.542Z,20.34
2022-08-18T17:51:57.559Z,20.22
2022-08-18T17:55:16.283Z,20.02
2022-08-18T17:58:34.035Z,20.03
2022-08-18T18:01:38.328Z,19.85
2022-08-18T18:04:43.614Z,19.75
2022-08-18T18:08:00.846Z,19.64
2022-08-18T18:11:13.062Z,19.55
2022-08-18T18:14:29.185Z,19.39
2022-08-18T18:17:37.896Z,19.33
2022-08-18T18:20:43.791Z,19.24
2022-08-18T18:23:52.625Z,19.11
2022-08-18T18:26:59.467Z,19.08
2022-08-18T18:30:09.025Z,18.87
2022-08-18T18:33:18.477Z,18.79
2022-08-18T18:36:40.362Z,18.63
2022-08-18T18:39:58.241Z,18.56
2022-08-18T18:43:24.444Z,18.45
2022-08-18T18:46:34.086Z,18.44
2022-08-18T18:49:51.749Z,18.40
2022-08-18T18:53:21.466Z,18.33
2022-08-18T18:56:31.921Z,18.28
2022-08-18T19:03:11.787Z,18.11
2022-08-18T19:06:29.505Z,18.05
2022-08-18T19:09:48.521Z,18.00
2022-08-18T19:13:00.853Z,18.03
2022-08-18T19:16:23.544Z,18.08
2022-08-18T19:19:39.365Z,18.07
2022-08-18T19:22:51.288Z,18.00
2022-08-18T19:25:59.427Z,18.01
2022-08-18T19:29:13.992Z,17.97
2022-08-18T19:32:27.647Z,17.82
2022-08-18T19:35:42.869Z,17.76
2022-08-18T19:42:18.260Z,17.70
2022-08-18T19:45:34.323Z,17.59
2022-08-18T19:48:52.952Z,17.57
2022-08-18T19:52:45.359Z,17.54
2022-08-18T19:55:57.978Z,17.53
2022-08-18T19:59:35.143Z,17.47
2022-08-18T20:03:10.104Z,17.39
2022-08-18T20:06:48.469Z,17.36
2022-08-18T20:10:21.181Z,17.37
2022-08-18T20:13:35.339Z,17.40
2022-08-18T20:16:43.802Z,17.42
2022-08-18T20:20:12.815Z,17.31
2022-08-18T20:26:50.269Z,17.31
2022-08-18T20:30:31.457Z,17.32
2022-08-18T20:33:43.419Z,17.32
2022-08-18T20:36:49.936Z,17.28
2022-08-18T20:39:56.804Z,17.28
2022-08-18T20:43:07.807Z,17.23
2022-08-18T20:46:33.726Z,17.20
2022-08-18T20:49:58.419Z,17.14
2022-08-18T20:53:16.545Z,17.13
2022-08-18T20:56:43.637Z,17.08
2022-08-18T21:00:02.269Z,16.96
2022-08-18T21:03:12.502Z,16.92
2022-08-18T21:06:17.118Z,16.88
2022-08-18T21:09:20.830Z,16.83
2022-08-18T21:12:28.665Z,16.77
2022-08-18T21:15:40.377Z,16.67
2022-08-18T21:18:53.853Z,16.57
2022-08-18T21:22:02.525Z,16.62
2022-08-18T21:25:13.715Z,16.55
2022-08-18T21:28:21.605Z,16.57
2022-08-18T21:31:43.230Z,16.54
2022-08-18T21:34:49.646Z,16.54
2022-08-18T21:38:05.677Z,16.44
2022-08-18T21:41:14.922Z,16.52
2022-08-18T21:44:23.806Z,16.52
2022-08-18T21:47:33.633Z,16.51
2022-08-18T21:50:38.809Z,16.51
2022-08-18T21:53:42.753Z,16.45
2022-08-18T21:56:46.707Z,16.46
2022-08-18T22:00:23.523Z,16.46
2022-08-18T22:03:29.737Z,16.47
2022-08-18T22:06:41.595Z,16.44
2022-08-18T22:10:19.062Z,16.39
2022-08-18T22:13:45.490Z,16.41
2022-08-18T22:16:49.498Z,16.40
2022-08-18T22:19:54.993Z,16.33
2022-08-18T22:23:32.687Z,16.27
2022-08-18T22:26:39.559Z,16.20
2022-08-18T22:29:50.893Z,16.20
2022-08-18T22:32:54.616Z,16.15
2022-08-18T22:36:02.971Z,16.08
2022-08-18T22:39:08.484Z,16.05
2022-08-18T22:42:13.663Z,16.01
2022-08-18T22:45:24.222Z,15.98
2022-08-18T22:48:28.427Z,15.94
2022-08-18T22:51:36.328Z,15.94
2022-08-18T22:54:40.074Z,15.92
2022-08-18T22:57:47.277Z,15.88
2022-08-18T23:00:51.698Z,15.88
2022-08-18T23:03:55.623Z,15.89
2022-08-18T23:07:00.839Z,15.94
2022-08-18T23:10:12.528Z,15.93
2022-08-18T23:13:17.787Z,15.90
2022-08-18T23:16:31.954Z,15.95
2022-08-18T23:19:36.192Z,15.98
2022-08-18T23:22:42.141Z,16.00
2022-08-18T23:25:46.011Z,15.97
2022-08-18T23:28:52.534Z,15.99
2022-08-18T23:31:57.153Z,16.03
2022-08-18T23:35:00.974Z,16.04
2022-08-18T23:38:07.986Z,16.10
2022-08-18T23:41:13.690Z,16.08
2022-08-18T23:44:17.333Z,16.08
2022-08-18T23:47:21.266Z,16.09
2022-08-18T23:50:25.201Z,16.07
2022-08-18T23:53:32.415Z,16.09
2022-08-18T23:56:38.638Z,16.07
2022-08-18T23:59:42.232Z,16.11
